메인 페이지
METAR-TAF:

METAR-TAF

공항 :

인천국제공항

인천, 대한민국

위도: 37-28N, 경도: 126-27E, 고도: 7m

현재 날씨관측

예보는 15분 전, 17:00시(UTC)에 발표되었습니다.
서남서10kt남서풍과 풍을 오가는
온도 16°C
습도 88%
기압 1010 hPa
시정: 2500m
고도 100ft 상공 구름 보통
고도 2000ft 상공 구름 많음
고도 8000ft 상공 흐림
박무

METAR: RKSI 311700Z 25010KT 220V280 2500 BR SCT001 BKN020 OVC080 16/14 Q1010 NOSIG

시각: 02:15 (17:15 UTC)

예보

예보는 4 시간 10분 전, 13:05시(UTC)에 발표되었습니다.
예보 대상 시간: 31일 13시부터 01일 18시까지 (UTC)
남서10kt
시정: 6000m
고도 1000ft 상공 구름 보통
고도 2500ft 상공 구름 많음
고도 10000ft 상공 흐림
약한비
전환 중
31일 14시부터 31일 15시까지 (UTC)
시정: 4200m
일시적
31일 18시부터 31일 21시까지 (UTC)
시정: 2000m
고도 500ft 상공 구름 많음
고도 2500ft 상공 구름 많음
고도 8000ft 상공 흐림
전환 중
31일 21시부터 31일 22시까지 (UTC)
12kt
시정: 6000m
고도 3000ft 상공 구름 보통
고도 15000ft 상공 구름 많음
전환 중
01일 02시부터 01일 03시까지 (UTC)
15kt, 순간 최대 풍속 25kt
시정 10km 이상
1500m 미만 상공 구름 및 적란운 없음
전환 중
01일 12시부터 01일 13시까지 (UTC)
6kt

TAF: RKSI 311305Z 3113/0118 22010KT 6000 -RA SCT010 BKN025 OVC100 TN16/3120Z TX22/0106Z BECMG 3114/3115 4200 TEMPO 3118/3121 2000 BKN005 BKN025 OVC080 BECMG 3121/3122 28012KT 6000 NSW SCT030 BKN150 BECMG 0102/0103 27015G25KT CAVOK BECMG 0112/0113 19006KT

4,000개 이상의 공항 관측 자료 및 예보 (METAR 및 TAF 보고).

지도상에서 검색 가능한 기상관측소가 노란 점과 빨간 점으로 표시되어 있습니다.

기상관측소 명을 보려면 표시 위로 마우스를 이동하세요.

날씨 관측과 예보를 보려면 클릭하세요.

지도 변경 : 확대하려면 엑스 표시가 있는 녹색 버튼, 축소하려면 빼기 표시가 있는 녹색 버튼, 다음 페이지의 지도를 보려면 녹색 화살표를 클릭하세요.


METAR-TAF: